Time;durP1;ratioP1;P1;durP2;ratioP2;P2;SDS_P1;SDS_P2;PMS_P1;PMS_P2;Temp;Humidity;BMP_temperature;BMP_pressure;BME280_temperature;BME280_humidity;BME280_pressure;Samples;Min_cycle;Max_cycle;Signal;HPM_P1;HPM_P2
2022/06/04 00:00:58;;;;;;;10.75;2.90;;;13.40;99.90;;;;;;4964432;28;20215;-54
2022/06/04 00:03:27;;;;;;;9.50;2.97;;;13.30;99.90;;;;;;4964510;28;20975;-53
2022/06/04 00:05:57;;;;;;;6.05;3.13;;;13.30;99.90;;;;;;4965015;28;20045;-54
2022/06/04 00:08:25;;;;;;;3.75;2.75;;;13.30;99.90;;;;;;4964898;28;20345;-53
2022/06/04 00:16:27;;;;;;;3.65;2.42;;;13.30;99.90;;;;;;4982529;28;20060;-55
2022/06/04 00:18:54;;;;;;;4.78;2.60;;;13.30;99.90;;;;;;4981724;28;20045;-53
2022/06/04 00:21:22;;;;;;;8.77;2.60;;;13.40;99.90;;;;;;4982296;28;20067;-53
2022/06/04 00:23:50;;;;;;;3.90;2.92;;;13.40;99.90;;;;;;4984524;28;20790;-53
2022/06/04 00:26:18;;;;;;;6.60;2.60;;;13.40;99.90;;;;;;4984846;28;20818;-52
2022/06/04 00:28:46;;;;;;;8.85;2.92;;;13.40;99.90;;;;;;4983550;28;20041;-54
2022/06/04 00:31:15;;;;;;;14.52;2.63;;;13.40;99.90;;;;;;4984264;28;20221;-54
2022/06/04 00:33:42;;;;;;;9.90;2.20;;;13.40;99.90;;;;;;4987057;28;21072;-54
2022/06/04 00:36:10;;;;;;;4.93;2.45;;;13.50;99.90;;;;;;4987773;28;20056;-54
2022/06/04 00:38:37;;;;;;;4.35;2.38;;;13.40;99.90;;;;;;4986959;28;20218;-54
2022/06/04 00:41:25;;;;;;;6.18;2.50;;;13.50;99.90;;;;;;4986713;28;20384;-55
2022/06/04 00:44:09;;;;;;;14.30;3.58;;;13.50;99.90;;;;;;4986000;28;20354;-53
2022/06/04 00:46:48;;;;;;;17.27;4.82;;;13.50;99.90;;;;;;4986678;28;20373;-54
2022/06/04 00:49:18;;;;;;;6.65;2.85;;;13.50;99.90;;;;;;4986027;28;20359;-54
2022/06/04 00:51:49;;;;;;;15.07;3.58;;;13.40;99.90;;;;;;4987859;28;20528;-54
2022/06/04 00:54:17;;;;;;;10.32;3.15;;;13.40;99.90;;;;;;4968008;28;20294;-54
2022/06/04 00:57:17;;;;;;;16.08;4.20;;;13.40;99.90;;;;;;4967565;28;20045;-54
2022/06/04 00:59:53;;;;;;;9.32;3.50;;;13.40;99.90;;;;;;4965117;28;20058;-54
2022/06/04 01:02:40;;;;;;;14.00;3.70;;;13.40;99.90;;;;;;4967681;28;20045;-54
2022/06/04 01:05:07;;;;;;;7.28;3.35;;;13.40;99.90;;;;;;4968402;28;20742;-54
2022/06/04 01:07:58;;;;;;;13.15;3.55;;;13.30;99.90;;;;;;4964969;28;20234;-54
2022/06/04 01:10:42;;;;;;;10.70;3.22;;;13.30;99.90;;;;;;4970810;28;20302;-54
2022/06/04 01:13:15;;;;;;;20.88;4.20;;;13.40;99.90;;;;;;4987489;28;20466;-53
2022/06/04 01:16:07;;;;;;;19.90;4.28;;;13.30;99.90;;;;;;4987460;28;20320;-54
2022/06/04 01:18:54;;;;;;;12.68;4.70;;;13.30;99.90;;;;;;4964625;28;20444;-54
2022/06/04 01:21:20;;;;;;;14.82;4.15;;;13.30;99.90;;;;;;4967859;28;20318;-53
2022/06/04 01:24:28;;;;;;;8.32;4.25;;;13.30;99.90;;;;;;4965288;28;20249;-54
2022/06/04 01:27:16;;;;;;;17.10;4.00;;;13.30;99.90;;;;;;4963945;28;20057;-54
2022/06/04 01:29:58;;;;;;;14.30;4.93;;;13.30;99.90;;;;;;4966482;28;20046;-53
2022/06/04 01:32:34;;;;;;;10.70;4.60;;;13.40;99.90;;;;;;4965893;28;20316;-53
2022/06/04 01:35:23;;;;;;;10.97;4.53;;;13.30;99.90;;;;;;4967018;28;20383;-54
2022/06/04 01:38:12;;;;;;;11.63;4.70;;;13.30;99.90;;;;;;4967077;28;20357;-54
2022/06/04 01:41:03;;;;;;;10.13;4.45;;;13.30;99.90;;;;;;4969691;28;20345;-54
2022/06/04 01:43:35;;;;;;;9.73;4.18;;;13.30;99.90;;;;;;4983399;28;20527;-54
2022/06/04 01:46:16;;;;;;;17.50;5.30;;;13.30;99.90;;;;;;4986528;28;20620;-53
2022/06/04 01:48:45;;;;;;;11.07;4.95;;;13.30;99.90;;;;;;4985418;28;20355;-53
2022/06/04 01:51:18;;;;;;;16.88;4.90;;;13.20;99.90;;;;;;4985319;28;20045;-53
2022/06/04 01:53:47;;;;;;;10.38;4.38;;;13.20;99.90;;;;;;4981601;28;20397;-53
2022/06/04 01:56:22;;;;;;;12.27;4.05;;;13.20;99.90;;;;;;4964369;28;20424;-54
2022/06/04 01:58:54;;;;;;;16.88;4.82;;;13.20;99.90;;;;;;4964819;28;20049;-54
2022/06/04 02:01:27;;;;;;;13.10;4.10;;;13.20;99.90;;;;;;4966332;28;20214;-54
2022/06/04 02:04:24;;;;;;;12.45;3.53;;;13.20;99.90;;;;;;4965371;28;20156;-55
2022/06/04 02:09:47;;;;;;;17.42;5.82;;;13.20;99.90;;;;;;4967571;28;20284;-55
2022/06/04 02:12:14;;;;;;;15.73;5.10;;;13.20;99.90;;;;;;4984610;28;20521;-54
2022/06/04 02:14:43;;;;;;;12.27;4.85;;;13.20;99.90;;;;;;4984243;28;20543;-54
2022/06/04 02:17:17;;;;;;;19.63;4.65;;;13.20;99.90;;;;;;4981993;28;20037;-55
2022/06/04 02:19:45;;;;;;;10.35;3.92;;;13.20;99.90;;;;;;4986534;28;20201;-55
2022/06/04 02:22:12;;;;;;;9.43;4.03;;;13.20;99.90;;;;;;4984526;28;20055;-54
2022/06/04 02:24:41;;;;;;;12.40;4.22;;;13.20;99.90;;;;;;4984176;28;20940;-54
2022/06/04 02:27:09;;;;;;;14.60;4.65;;;13.20;99.90;;;;;;4981603;28;20068;-54
2022/06/04 02:29:37;;;;;;;8.75;3.97;;;13.20;99.90;;;;;;4984069;28;20780;-53
2022/06/04 02:32:29;;;;;;;17.10;3.92;;;13.20;99.90;;;;;;4985992;28;20570;-53
2022/06/04 02:35:02;;;;;;;8.75;4.07;;;13.20;99.90;;;;;;4983754;28;20576;-55
2022/06/04 02:37:42;;;;;;;19.83;4.65;;;13.20;99.90;;;;;;4982797;28;20045;-55
2022/06/04 02:40:40;;;;;;;7.53;3.45;;;13.20;99.90;;;;;;4981847;28;20213;-55
2022/06/04 02:43:19;;;;;;;7.75;3.95;;;13.20;99.90;;;;;;4972947;28;20534;-54
2022/06/04 02:46:07;;;;;;;10.57;4.35;;;13.20;99.90;;;;;;4982273;28;20372;-55
2022/06/04 02:49:11;;;;;;;8.27;3.67;;;13.20;99.90;;;;;;4981574;28;20056;-55
2022/06/04 02:51:45;;;;;;;7.75;3.80;;;13.20;99.90;;;;;;4985591;28;20794;-55
2022/06/04 02:54:26;;;;;;;20.45;5.15;;;13.20;99.90;;;;;;4983451;28;20363;-55
2022/06/04 02:56:55;;;;;;;16.40;4.55;;;13.10;99.90;;;;;;4961805;28;20360;-55
2022/06/04 02:59:24;;;;;;;8.45;3.97;;;13.10;99.90;;;;;;4965978;28;20346;-55
2022/06/04 03:01:55;;;;;;;11.10;4.13;;;13.10;99.90;;;;;;4981969;28;20591;-55
2022/06/04 03:04:22;;;;;;;9.52;3.90;;;13.10;99.90;;;;;;4982710;28;20479;-55
2022/06/04 03:06:49;;;;;;;8.77;3.80;;;13.10;99.90;;;;;;4982980;28;20056;-54
2022/06/04 03:09:18;;;;;;;13.05;4.18;;;13.10;99.90;;;;;;4985272;28;20381;-55
2022/06/04 03:11:49;;;;;;;9.90;4.55;;;13.10;99.90;;;;;;4984410;28;20143;-55
2022/06/04 03:14:18;;;;;;;56.33;5.68;;;13.10;99.90;;;;;;4985666;28;20072;-53
2022/06/04 03:16:47;;;;;;;11.15;4.57;;;13.10;99.90;;;;;;4981550;28;20348;-52
2022/06/04 03:19:15;;;;;;;10.15;5.35;;;13.10;99.90;;;;;;4981396;28;20872;-54
2022/06/04 03:21:42;;;;;;;11.35;4.72;;;13.10;99.90;;;;;;4985832;28;20041;-53
2022/06/04 03:24:11;;;;;;;9.23;4.13;;;13.10;99.90;;;;;;4984334;28;20059;-53
2022/06/04 03:26:39;;;;;;;18.63;5.18;;;13.10;99.90;;;;;;4985858;28;20044;-55
2022/06/04 03:29:06;;;;;;;11.18;4.38;;;13.10;99.90;;;;;;4980731;28;20237;-54
2022/06/04 03:31:34;;;;;;;8.90;4.20;;;13.10;99.90;;;;;;4981514;28;20459;-52
2022/06/04 03:34:02;;;;;;;28.65;6.20;;;13.20;99.90;;;;;;4986413;28;20111;-53
2022/06/04 03:36:29;;;;;;;8.93;4.05;;;13.10;99.90;;;;;;4984783;28;20503;-54
2022/06/04 03:38:58;;;;;;;10.13;4.85;;;13.10;99.90;;;;;;4980919;28;20041;-53
2022/06/04 03:41:25;;;;;;;9.48;4.22;;;13.10;99.90;;;;;;4982610;28;20162;-52
2022/06/04 03:43:52;;;;;;;14.85;5.45;;;13.10;99.90;;;;;;4983498;28;20494;-54
2022/06/04 03:46:21;;;;;;;10.90;4.70;;;13.10;99.90;;;;;;4982968;28;20426;-52
2022/06/04 03:48:48;;;;;;;22.90;4.47;;;13.10;99.90;;;;;;4981167;28;20799;-53
2022/06/04 03:51:15;;;;;;;;;;;13.10;99.90;;;;;;4985429;28;20505;-53
2022/06/04 03:53:42;;;;;;;16.13;5.75;;;13.20;99.90;;;;;;4965754;28;20216;-52
2022/06/04 03:56:09;;;;;;;18.75;5.50;;;13.30;99.90;;;;;;4977686;28;20045;-51
2022/06/04 03:58:37;;;;;;;19.85;5.93;;;13.30;99.90;;;;;;4960209;28;20222;-52
2022/06/04 04:01:20;;;;;;;9.98;4.10;;;13.40;99.90;;;;;;4967528;28;20973;-53
2022/06/04 04:03:47;;;;;;;13.80;5.78;;;13.40;99.90;;;;;;4978747;28;20188;-53
2022/06/04 04:06:19;;;;;;;8.73;4.15;;;13.50;99.90;;;;;;4965412;28;20956;-52
2022/06/04 04:08:46;;;;;;;9.02;3.53;;;13.50;99.90;;;;;;4984798;28;20066;-54
2022/06/04 04:11:15;;;;;;;7.90;3.63;;;13.50;99.90;;;;;;4978186;28;21129;-53
2022/06/04 04:13:44;;;;;;;12.95;4.60;;;13.50;99.90;;;;;;4984909;28;20218;-54
2022/06/04 04:16:12;;;;;;;5.75;3.88;;;13.60;99.90;;;;;;4986918;28;20162;-53
2022/06/04 04:18:40;;;;;;;15.23;5.18;;;13.60;99.90;;;;;;4987521;28;20044;-55
2022/06/04 04:21:09;;;;;;;11.98;4.82;;;13.60;99.90;;;;;;4984812;28;20614;-55
2022/06/04 04:23:37;;;;;;;7.53;4.65;;;13.60;99.90;;;;;;4984855;28;20446;-56
2022/06/04 04:26:06;;;;;;;9.30;4.15;;;13.60;99.90;;;;;;4988330;28;20517;-54
2022/06/04 04:28:33;;;;;;;6.47;4.38;;;13.60;99.90;;;;;;4984184;28;20614;-54
2022/06/04 04:31:00;;;;;;;8.25;4.15;;;13.70;99.90;;;;;;4987598;28;20450;-54
2022/06/04 04:33:27;;;;;;;9.38;3.50;;;13.70;99.90;;;;;;4988859;28;20355;-54
2022/06/04 04:35:54;;;;;;;10.80;4.50;;;13.70;99.90;;;;;;4985267;28;20533;-54
2022/06/04 04:38:21;;;;;;;6.93;3.80;;;13.80;99.90;;;;;;4987591;28;20041;-53
2022/06/04 04:40:49;;;;;;;6.10;4.22;;;13.80;99.90;;;;;;4987225;28;20045;-55
2022/06/04 04:43:16;;;;;;;18.70;4.90;;;13.80;99.90;;;;;;4985800;28;20643;-52
2022/06/04 04:45:43;;;;;;;13.27;5.07;;;13.90;99.90;;;;;;4990503;28;20048;-54
2022/06/04 04:48:11;;;;;;;7.28;4.05;;;13.80;99.90;;;;;;4988666;28;20052;-54
2022/06/04 04:50:45;;;;;;;17.13;4.00;;;13.90;99.90;;;;;;4991031;28;20202;-55
2022/06/04 04:53:13;;;;;;;18.23;4.90;;;13.90;99.90;;;;;;4969586;28;20594;-54
2022/06/04 04:55:46;;;;;;;10.70;5.00;;;13.90;99.90;;;;;;4990261;28;20037;-55
2022/06/04 04:58:13;;;;;;;13.63;5.88;;;14.00;99.90;;;;;;4983485;28;20360;-54
2022/06/04 05:00:40;;;;;;;;;;;14.10;99.90;;;;;;4971076;28;20229;-53
2022/06/04 05:03:07;;;;;;;12.18;4.78;;;14.10;99.90;;;;;;4965701;28;20686;-54
2022/06/04 05:05:35;;;;;;;9.25;4.18;;;14.20;99.90;;;;;;4969996;28;20132;-53
2022/06/04 05:08:02;;;;;;;9.52;4.78;;;14.30;99.90;;;;;;4970423;28;20194;-53
2022/06/04 05:10:29;;;;;;;9.23;4.35;;;14.30;99.90;;;;;;4974575;28;20617;-53
2022/06/04 05:12:56;;;;;;;;;;;14.40;99.90;;;;;;4991813;28;20045;-53
2022/06/04 05:15:24;;;;;;;8.32;4.60;;;14.40;99.90;;;;;;4984538;28;20409;-53
2022/06/04 05:17:51;;;;;;;11.32;4.75;;;14.50;99.90;;;;;;4986877;28;20064;-53
2022/06/04 05:20:18;;;;;;;10.85;5.22;;;14.60;99.90;;;;;;4988607;28;20158;-54
2022/06/04 05:22:45;;;;;;;11.70;4.47;;;14.70;99.90;;;;;;4989939;28;20041;-55
2022/06/04 05:25:12;;;;;;;8.88;5.22;;;14.70;99.90;;;;;;4986703;28;20475;-52
2022/06/04 05:27:39;;;;;;;8.65;5.68;;;14.70;99.90;;;;;;4993322;28;20577;-52
2022/06/04 05:30:07;;;;;;;12.32;5.10;;;14.80;99.90;;;;;;4989332;28;20747;-63
2022/06/04 05:32:34;;;;;;;9.38;5.97;;;14.80;99.90;;;;;;4990247;28;20148;-51
2022/06/04 05:35:02;;;;;;;11.38;5.78;;;14.80;99.90;;;;;;4987405;28;20355;-52
2022/06/04 05:37:29;;;;;;;11.82;5.82;;;14.80;99.90;;;;;;4986183;28;20048;-51
2022/06/04 05:40:01;;;;;;;13.90;4.78;;;14.80;99.90;;;;;;4989622;28;20037;-54
2022/06/04 05:42:29;;;;;;;19.40;5.53;;;14.80;99.90;;;;;;4985282;28;20118;-52
2022/06/04 05:44:56;;;;;;;10.77;5.13;;;14.80;99.90;;;;;;4988613;28;20266;-51
2022/06/04 05:47:23;;;;;;;6.25;4.68;;;14.80;99.90;;;;;;4987303;28;20387;-52
2022/06/04 05:49:50;;;;;;;5.60;5.07;;;14.80;99.90;;;;;;4989462;28;20049;-53
2022/06/04 05:52:17;;;;;;;7.30;5.47;;;14.80;99.90;;;;;;4990352;28;20047;-53
2022/06/04 05:54:44;;;;;;;13.20;5.63;;;14.70;99.90;;;;;;4991087;28;20068;-52
2022/06/04 05:57:11;;;;;;;9.10;5.43;;;14.80;99.90;;;;;;4990486;28;20048;-53
2022/06/04 05:59:38;;;;;;;8.55;5.25;;;14.80;99.90;;;;;;4968930;28;20087;-53
2022/06/04 06:02:05;;;;;;;9.90;5.05;;;14.80;99.90;;;;;;4968967;28;20548;-54
2022/06/04 06:04:32;;;;;;;;;;;14.80;99.90;;;;;;4967649;28;20551;-54
2022/06/04 06:07:00;;;;;;;9.25;5.05;;;14.90;99.90;;;;;;4969428;28;20470;-55
2022/06/04 06:09:28;;;;;;;14.55;4.15;;;14.80;99.90;;;;;;4970353;28;20199;-54
2022/06/04 06:11:55;;;;;;;4.20;3.78;;;14.90;99.90;;;;;;4986678;28;20045;-53
2022/06/04 06:14:23;;;;;;;8.13;4.75;;;14.90;99.90;;;;;;4987794;28;20627;-54
2022/06/04 06:16:52;;;;;;;8.52;4.88;;;15.00;99.90;;;;;;4988771;28;20499;-53
2022/06/04 06:19:21;;;;;;;3.75;3.30;;;15.10;99.90;;;;;;4986017;28;20151;-53
2022/06/04 06:21:48;;;;;;;10.38;4.05;;;15.10;99.90;;;;;;4990042;28;20720;-52
2022/06/04 06:24:21;;;;;;;10.18;3.90;;;15.20;99.90;;;;;;4990062;28;20110;-51
2022/06/04 06:26:52;;;;;;;5.38;3.15;;;15.30;99.90;;;;;;4986828;28;20068;-51
2022/06/04 06:29:23;;;;;;;7.00;3.47;;;15.40;99.90;;;;;;4989010;28;20049;-51
2022/06/04 06:31:51;;;;;;;8.70;3.53;;;15.50;99.90;;;;;;4988694;28;20037;-52
2022/06/04 06:34:18;;;;;;;5.90;3.25;;;15.60;99.90;;;;;;4988859;28;20045;-52
2022/06/04 06:36:47;;;;;;;8.45;3.40;;;15.70;99.90;;;;;;4985200;28;20502;-53
2022/06/04 06:39:15;;;;;;;5.15;3.17;;;15.70;99.90;;;;;;4985859;28;20041;-52
2022/06/04 06:41:42;;;;;;;5.35;3.72;;;15.80;99.90;;;;;;4986017;28;20550;-52
2022/06/04 06:44:12;;;;;;;8.18;3.30;;;15.90;99.90;;;;;;4987050;28;20487;-52
2022/06/04 06:46:46;;;;;;;8.40;3.47;;;16.00;99.90;;;;;;4985714;28;20059;-53
2022/06/04 06:49:17;;;;;;;4.72;2.58;;;16.10;99.90;;;;;;4985938;28;20048;-53
2022/06/04 06:51:55;;;;;;;6.75;2.88;;;16.20;99.90;;;;;;4989352;28;20766;-54
2022/06/04 06:54:26;;;;;;;5.22;2.40;;;16.30;99.90;;;;;;4982050;28;20143;-54
2022/06/04 06:56:54;;;;;;;4.10;2.60;;;16.40;99.90;;;;;;4983119;28;20438;-55
2022/06/04 06:59:21;;;;;;;4.65;2.85;;;16.50;99.90;;;;;;4977378;28;20034;-53
2022/06/04 07:01:50;;;;;;;3.38;2.67;;;16.60;99.90;;;;;;4982093;28;20051;-54
2022/06/04 07:04:18;;;;;;;3.72;2.60;;;16.70;99.90;;;;;;4968874;28;20142;-55
2022/06/04 07:06:48;;;;;;;8.82;2.80;;;16.80;99.90;;;;;;4990988;28;20205;-57
2022/06/04 07:09:22;;;;;;;10.98;2.60;;;17.00;99.90;;;;;;4987447;28;20593;-55
2022/06/04 07:11:49;;;;;;;4.63;3.00;;;17.20;99.90;;;;;;4988163;28;20041;-53
2022/06/04 07:14:16;;;;;;;4.57;2.05;;;17.30;99.90;;;;;;4951725;28;20056;-55
2022/06/04 07:16:45;;;;;;;8.60;2.67;;;17.40;99.90;;;;;;4988670;28;20506;-63
2022/06/04 07:19:13;;;;;;;3.55;2.35;;;17.50;99.90;;;;;;4986749;28;20041;-55
2022/06/04 07:21:41;;;;;;;8.18;2.67;;;17.60;99.90;;;;;;4989035;28;20263;-54
2022/06/04 07:24:09;;;;;;;3.78;2.00;;;17.70;99.90;;;;;;4988726;28;20041;-53
2022/06/04 07:26:37;;;;;;;15.40;4.38;;;17.80;99.90;;;;;;4972213;28;20052;-53
2022/06/04 07:29:05;;;;;;;6.78;2.08;;;18.00;99.90;;;;;;4990065;28;20577;-53
2022/06/04 07:31:32;;;;;;;2.05;1.85;;;18.10;99.90;;;;;;4990276;28;20748;-54
2022/06/04 07:33:59;;;;;;;2.42;1.80;;;18.20;99.90;;;;;;4992527;28;20155;-55
2022/06/04 07:36:47;;;;;;;3.42;2.03;;;18.30;99.90;;;;;;4990402;28;20543;-54
2022/06/04 07:39:19;;;;;;;5.00;2.30;;;18.40;99.90;;;;;;4992848;28;20041;-57
2022/06/04 07:41:51;;;;;;;4.47;2.38;;;18.50;99.90;;;;;;4988958;28;20041;-52
2022/06/04 07:44:21;;;;;;;7.63;2.53;;;18.60;99.90;;;;;;4983112;28;20044;-54
2022/06/04 07:46:49;;;;;;;8.75;2.08;;;18.70;99.90;;;;;;4974819;28;20609;-54
2022/06/04 07:49:19;;;;;;;2.22;1.58;;;18.80;99.90;;;;;;4969824;28;20060;-55
2022/06/04 07:51:47;;;;;;;2.72;1.73;;;18.90;99.90;;;;;;4966144;28;20053;-56
2022/06/04 07:54:14;;;;;;;6.15;2.30;;;19.10;99.90;;;;;;4969373;28;20049;-55
2022/06/04 07:56:42;;;;;;;2.38;2.10;;;19.20;99.90;;;;;;4969811;28;20274;-54
2022/06/04 07:59:13;;;;;;;2.90;2.22;;;19.40;99.90;;;;;;4964617;28;20041;-54
2022/06/04 08:01:40;;;;;;;6.05;2.22;;;19.50;99.90;;;;;;4982708;28;20045;-53
2022/06/04 08:04:08;;;;;;;3.50;2.20;;;19.70;99.90;;;;;;4984109;28;20771;-66
2022/06/04 08:06:35;;;;;;;4.10;1.75;;;19.80;99.90;;;;;;4981333;28;20862;-53
2022/06/04 08:09:03;;;;;;;2.15;1.60;;;20.00;99.90;;;;;;4985812;28;20982;-52
2022/06/04 08:11:33;;;;;;;4.60;1.65;;;20.20;99.90;;;;;;4997674;28;20045;-51
2022/06/04 08:14:00;;;;;;;4.60;1.65;;;20.40;99.90;;;;;;4990909;28;20583;-59
2022/06/04 08:16:27;;;;;;;3.45;1.85;;;20.50;99.90;;;;;;4986738;28;20044;-51
2022/06/04 08:18:54;;;;;;;6.57;1.90;;;20.80;99.90;;;;;;4969682;28;20037;-48
2022/06/04 08:21:21;;;;;;;6.35;1.88;;;20.90;99.90;;;;;;4983591;28;20756;-47
2022/06/04 08:23:49;;;;;;;5.53;1.75;;;21.10;99.90;;;;;;4991111;28;20037;-50
2022/06/04 08:26:16;;;;;;;2.17;1.40;;;21.30;99.90;;;;;;4986901;28;20202;-54
2022/06/04 08:28:44;;;;;;;11.25;2.22;;;21.50;99.90;;;;;;4987430;28;20037;-51
2022/06/04 08:31:13;;;;;;;6.20;2.00;;;21.70;99.90;;;;;;4990028;28;20306;-52
2022/06/04 08:33:41;;;;;;;6.72;2.08;;;21.90;99.90;;;;;;4980449;28;20368;-52
2022/06/04 08:36:09;;;;;;;3.60;1.83;;;22.20;99.90;;;;;;4989432;28;20037;-52
2022/06/04 08:38:37;;;;;;;6.32;1.75;;;22.50;99.90;;;;;;4989277;28;20565;-53
2022/06/04 08:41:08;;;;;;;3.95;1.88;;;22.70;99.90;;;;;;4989916;28;20604;-52
2022/06/04 08:43:57;;;;;;;2.75;1.50;;;22.90;99.90;;;;;;4985111;28;20110;-51
2022/06/04 08:46:39;;;;;;;4.53;1.40;;;23.20;99.90;;;;;;4985169;28;20041;-49
2022/06/04 08:49:17;;;;;;;2.75;1.77;;;23.40;99.90;;;;;;4983230;28;20033;-61
2022/06/04 08:51:45;;;;;;;4.82;2.28;;;23.60;99.90;;;;;;4986998;28;20056;-55
2022/06/04 08:59:55;;;;;;;3.33;1.40;;;24.00;99.90;;;;;;4991858;28;20552;-53
2022/06/04 09:02:39;;;;;;;3.67;1.58;;;24.20;99.90;;;;;;4989088;28;20036;-51
2022/06/04 09:05:31;;;;;;;3.58;1.40;;;24.50;99.90;;;;;;4967869;28;20198;-52
2022/06/04 09:08:03;;;;;;;6.00;1.50;;;24.70;99.90;;;;;;4970395;28;20554;-52
2022/06/04 09:10:40;;;;;;;4.22;1.40;;;24.80;99.90;;;;;;4974584;28;20040;-54
2022/06/04 09:13:25;;;;;;;8.13;1.60;;;24.80;99.90;;;;;;4990064;28;20033;-54
2022/06/04 09:15:55;;;;;;;4.55;2.60;;;24.70;99.90;;;;;;4990940;28;20037;-53
2022/06/04 09:18:32;;;;;;;3.45;1.55;;;24.80;99.90;;;;;;4987098;28;20029;-55
2022/06/04 09:21:01;;;;;;;6.22;1.63;;;24.90;99.90;;;;;;4977447;28;20217;-55
2022/06/04 09:23:37;;;;;;;4.57;2.47;;;25.00;99.90;;;;;;4989659;28;20040;-53
2022/06/04 09:26:13;;;;;;;3.25;1.73;;;25.20;99.90;;;;;;4992005;28;20056;-52
2022/06/04 09:28:43;;;;;;;3.38;1.40;;;25.20;99.90;;;;;;4987589;28;20719;-52
2022/06/04 09:31:21;;;;;;;2.40;1.60;;;25.20;99.90;;;;;;4990544;28;20324;-53
2022/06/04 09:34:02;;;;;;;4.55;2.13;;;25.30;99.90;;;;;;4986204;28;20056;-53
2022/06/04 09:36:36;;;;;;;3.05;1.70;;;25.40;99.90;;;;;;4986157;28;20156;-55
2022/06/04 09:39:17;;;;;;;5.20;1.55;;;25.50;99.90;;;;;;4993259;28;20574;-55
2022/06/04 09:42:00;;;;;;;2.55;1.55;;;25.60;99.90;;;;;;4993949;28;20574;-53
2022/06/04 09:44:29;;;;;;;3.33;1.88;;;25.70;99.90;;;;;;4979070;28;20796;-52
2022/06/04 09:46:59;;;;;;;4.10;1.63;;;25.80;99.90;;;;;;4992630;28;20152;-53
2022/06/04 09:49:32;;;;;;;4.85;2.03;;;26.00;99.90;;;;;;4991735;28;20190;-55
2022/06/04 09:52:10;;;;;;;7.15;2.15;;;26.10;99.90;;;;;;4989137;28;20239;-54
2022/06/04 09:54:40;;;;;;;3.65;2.05;;;26.40;99.90;;;;;;4992290;28;20699;-60
2022/06/04 09:57:26;;;;;;;5.00;2.08;;;26.30;99.90;;;;;;4987898;28;20807;-52
2022/06/04 09:59:57;;;;;;;3.08;1.70;;;26.20;99.90;;;;;;4990934;28;20204;-53
2022/06/04 10:02:24;;;;;;;4.05;2.17;;;26.20;99.90;;;;;;4980570;28;20065;-51
2022/06/04 10:05:06;;;;;;;7.65;2.97;;;26.10;99.90;;;;;;4982919;28;20149;-54
2022/06/04 10:07:38;;;;;;;5.90;2.20;;;25.80;99.90;;;;;;4963879;28;20870;-53
2022/06/04 10:10:29;;;;;;;8.70;2.22;;;25.50;99.90;;;;;;4972251;28;20554;-53
2022/06/04 10:15:48;;;;;;;3.35;2.25;;;24.80;99.90;;;;;;4988714;28;20051;-54
2022/06/04 10:18:23;;;;;;;7.03;2.33;;;24.50;99.90;;;;;;4985537;28;20514;-54
2022/06/04 10:20:53;;;;;;;5.60;2.10;;;24.20;99.90;;;;;;4989266;28;20068;-53
2022/06/04 10:23:20;;;;;;;3.55;1.70;;;24.00;99.90;;;;;;4986414;28;20041;-53
2022/06/04 10:26:29;;;;;;;4.90;1.95;;;23.90;99.90;;;;;;4983284;28;20255;-54
2022/06/04 10:29:23;;;;;;;6.43;2.38;;;24.10;99.90;;;;;;4990324;28;20185;-54
2022/06/04 10:32:20;;;;;;;5.97;2.70;;;24.50;99.90;;;;;;4993505;28;20051;-53
2022/06/04 10:35:13;;;;;;;3.80;2.38;;;24.90;99.90;;;;;;4988361;28;20547;-53
2022/06/04 10:37:52;;;;;;;3.55;2.40;;;25.30;99.90;;;;;;4990454;28;20530;-53
2022/06/04 10:40:32;;;;;;;4.18;2.10;;;25.50;99.90;;;;;;4985290;28;20312;-54
2022/06/04 10:43:40;;;;;;;5.32;2.20;;;25.70;99.90;;;;;;4978307;28;20510;-54
2022/06/04 10:46:38;;;;;;;3.97;2.40;;;25.90;99.90;;;;;;4985420;28;20037;-53
2022/06/04 10:49:24;;;;;;;;;;;26.10;99.90;;;;;;4986508;28;20624;-55
2022/06/04 10:52:32;;;;;;;8.27;2.53;;;26.30;99.90;;;;;;4985580;28;20446;-54
2022/06/04 10:55:11;;;;;;;3.97;2.03;;;26.50;99.90;;;;;;4986163;28;20052;-54
2022/06/04 10:57:54;;;;;;;4.72;2.13;;;26.70;99.90;;;;;;4966176;28;20432;-54
2022/06/04 11:00:48;;;;;;;5.03;1.80;;;26.90;99.90;;;;;;4985708;28;20133;-61
2022/06/04 11:03:44;;;;;;;5.38;2.10;;;27.10;99.90;;;;;;4978363;28;20095;-54
2022/06/04 11:06:23;;;;;;;3.67;1.90;;;27.20;99.90;;;;;;4953422;28;20319;-53
2022/06/04 11:09:16;;;;;;;3.28;1.90;;;27.30;99.90;;;;;;4948571;28;20057;-54
2022/06/04 11:11:52;;;;;;;3.85;1.80;;;27.30;99.90;;;;;;4977906;28;20088;-54
2022/06/04 11:14:26;;;;;;;6.05;2.03;;;27.40;99.90;;;;;;4987079;28;20503;-54
2022/06/04 11:17:16;;;;;;;6.45;2.60;;;27.50;99.90;;;;;;4984512;28;20064;-54
2022/06/04 11:19:53;;;;;;;4.45;1.60;;;27.60;99.90;;;;;;4980145;28;20049;-54
2022/06/04 11:22:24;;;;;;;;;;;27.70;99.90;;;;;;4990700;28;20754;-54
2022/06/04 11:25:03;;;;;;;5.82;2.38;;;27.70;99.90;;;;;;4986011;28;20240;-54
2022/06/04 11:27:41;;;;;;;3.70;1.73;;;27.70;99.90;;;;;;4988110;28;20213;-54
2022/06/04 11:30:20;;;;;;;2.92;1.92;;;27.80;99.90;;;;;;4989884;28;20148;-54
2022/06/04 11:33:13;;;;;;;2.55;1.83;;;28.00;99.90;;;;;;4982730;28;20045;-54
2022/06/04 11:35:54;;;;;;;2.17;1.70;;;28.10;99.90;;;;;;4961355;28;20905;-54
2022/06/04 11:38:21;;;;;;;4.53;1.48;;;28.20;99.90;;;;;;4984824;28;20103;-54
2022/06/04 11:41:13;;;;;;;4.70;2.08;;;28.30;99.90;;;;;;4989740;28;20213;-54
2022/06/04 11:43:46;;;;;;;7.28;2.15;;;28.40;99.90;;;;;;4985878;28;20039;-56
2022/06/04 11:46:54;;;;;;;2.10;1.70;;;28.40;99.90;;;;;;4991451;28;20025;-54
2022/06/04 11:49:47;;;;;;;6.07;2.05;;;28.30;99.90;;;;;;4970420;28;20562;-55
2022/06/04 11:52:17;;;;;;;2.80;1.67;;;28.10;99.90;;;;;;4989151;28;20056;-54
2022/06/04 11:55:26;;;;;;;4.20;2.00;;;27.90;99.90;;;;;;4986653;28;20570;-52
2022/06/04 11:58:08;;;;;;;2.15;1.35;;;27.90;99.90;;;;;;4991041;28;20377;-55
2022/06/04 12:00:39;;;;;;;5.93;1.95;;;28.00;99.90;;;;;;4985430;28;20139;-55
2022/06/04 12:03:39;;;;;;;5.93;1.70;;;28.20;99.90;;;;;;4986181;28;20648;-55
2022/06/04 12:06:10;;;;;;;4.18;2.10;;;28.30;99.90;;;;;;4979338;28;20562;-58
2022/06/04 12:08:46;;;;;;;2.22;1.38;;;28.40;99.90;;;;;;4982943;28;20554;-55
2022/06/04 12:11:31;;;;;;;5.43;2.00;;;28.50;99.90;;;;;;4984040;28;20800;-55
2022/06/04 12:14:13;;;;;;;5.40;1.75;;;28.60;99.90;;;;;;4986738;28;20064;-56
2022/06/04 12:16:51;;;;;;;3.17;1.65;;;28.70;99.90;;;;;;4986188;28;20598;-55
2022/06/04 12:25:43;;;;;;;4.13;1.42;;;28.90;99.90;;;;;;4990157;28;20049;-55
2022/06/04 12:28:25;;;;;;;2.13;1.35;;;29.00;98.80;;;;;;4987446;28;20060;-53
2022/06/04 12:30:53;;;;;;;4.15;1.70;;;29.20;99.90;;;;;;4993945;28;20044;-55
2022/06/04 12:33:34;;;;;;;2.42;1.40;;;29.30;99.90;;;;;;4985405;28;20687;-57
2022/06/04 12:36:08;;;;;;;4.40;1.83;;;29.40;99.90;;;;;;4988145;28;20413;-57
2022/06/04 12:38:44;;;;;;;5.18;1.80;;;29.50;95.00;;;;;;4986578;28;20119;-56
2022/06/04 12:41:20;;;;;;;3.25;2.05;;;29.60;99.90;;;;;;4989047;28;20037;-56
2022/06/04 12:43:59;;;;;;;12.00;2.22;;;29.70;98.40;;;;;;4990161;28;20075;-56
2022/06/04 12:46:27;;;;;;;2.47;1.45;;;29.80;96.50;;;;;;4994201;28;20895;-56
2022/06/04 12:48:58;;;;;;;4.53;1.52;;;29.90;94.10;;;;;;4989013;28;20044;-57
2022/06/04 12:51:35;;;;;;;5.90;1.80;;;30.00;86.90;;;;;;4987814;28;20064;-56
2022/06/04 12:54:25;;;;;;;3.58;1.50;;;30.20;92.60;;;;;;4988493;28;20147;-57
2022/06/04 12:56:56;;;;;;;9.73;1.77;;;30.20;89.70;;;;;;4989713;28;20803;-56
2022/06/04 12:59:40;;;;;;;8.98;2.92;;;30.20;64.40;;;;;;4988561;28;20041;-59
2022/06/04 13:02:26;;;;;;;11.13;2.70;;;30.20;64.20;;;;;;4988904;28;20037;-55
2022/06/04 13:05:17;;;;;;;9.60;2.50;;;30.20;58.50;;;;;;4985013;28;20361;-55
2022/06/04 13:07:55;;;;;;;9.15;2.40;;;30.00;63.30;;;;;;4967226;28;20592;-56
2022/06/04 13:10:31;;;;;;;7.80;2.30;;;30.10;66.10;;;;;;4976535;28;20111;-56
2022/06/04 13:13:12;;;;;;;;;;;30.10;64.70;;;;;;4988670;28;20037;-56
2022/06/04 13:15:52;;;;;;;15.40;2.92;;;30.10;59.70;;;;;;4989853;28;20253;-56
2022/06/04 13:18:30;;;;;;;14.10;2.20;;;30.00;57.00;;;;;;4990090;28;20068;-56
2022/06/04 13:21:03;;;;;;;10.77;2.42;;;30.00;59.40;;;;;;4987501;28;20033;-56
2022/06/04 13:23:45;;;;;;;10.25;2.03;;;30.10;55.80;;;;;;4989682;28;20037;-56
2022/06/04 13:26:15;;;;;;;10.52;2.28;;;30.20;58.60;;;;;;4991235;28;20865;-55
2022/06/04 13:28:46;;;;;;;11.70;2.83;;;30.30;60.80;;;;;;4987588;28;20779;-56
2022/06/04 13:31:23;;;;;;;14.43;3.13;;;30.40;59.70;;;;;;4992882;28;20606;-55
2022/06/04 13:33:52;;;;;;;9.93;2.97;;;30.50;56.10;;;;;;4986745;28;20520;-55
2022/06/04 13:36:23;;;;;;;10.77;2.60;;;30.60;57.60;;;;;;4988126;28;20581;-56
2022/06/04 13:38:58;;;;;;;11.50;2.40;;;30.70;60.80;;;;;;4987480;28;20041;-56
2022/06/04 13:44:42;;;;;;;10.68;2.50;;;30.80;55.20;;;;;;4989694;28;20045;-57
2022/06/04 13:47:15;;;;;;;8.35;2.30;;;31.00;54.80;;;;;;4991766;28;20259;-55